Time;durP1;ratioP1;P1;durP2;ratioP2;P2;SDS_P1;SDS_P2;PMS_P1;PMS_P2;Temp;Humidity;BMP_temperature;BMP_pressure;BME280_temperature;BME280_humidity;BME280_pressure;Samples;Min_cycle;Max_cycle;Signal;HPM_P1;HPM_P2
2023/05/23 00:01:06;;;;;;;10.70;7.10;;;;;;;12.91;70.05;98305.15;105097;1270;98804;-60
2023/05/23 00:03:34;;;;;;;10.30;6.70;;;;;;;12.87;70.20;98297.85;105300;1269;97908;-59
2023/05/23 00:06:01;;;;;;;10.90;7.60;;;;;;;12.81;70.41;98295.05;105090;1254;98004;-59
2023/05/23 00:08:28;;;;;;;10.80;7.60;;;;;;;12.76;70.49;98294.17;104969;1261;97994;-60
2023/05/23 00:10:55;;;;;;;11.50;8.10;;;;;;;12.70;70.62;98292.77;105187;1260;99208;-61
2023/05/23 00:13:22;;;;;;;11.40;8.10;;;;;;;12.62;70.88;98294.52;105058;1260;99208;-59
2023/05/23 00:15:49;;;;;;;16.60;8.40;;;;;;;12.56;70.91;98295.88;105054;1267;108522;-59
2023/05/23 00:18:17;;;;;;;13.90;7.70;;;;;;;12.53;70.90;98295.16;105045;1258;98782;-66
2023/05/23 00:20:45;;;;;;;12.20;8.20;;;;;;;12.53;70.90;98293.58;105193;1259;97856;-60
2023/05/23 00:23:19;;;;;;;12.30;7.50;;;;;;;12.52;71.11;98294.81;105136;1260;111848;-60
2023/05/23 00:25:51;;;;;;;11.40;7.90;;;;;;;12.43;71.24;98295.09;105164;1254;98273;-59
2023/05/23 00:28:32;;;;;;;12.30;7.70;;;;;;;12.34;71.51;98291.86;104797;1264;107330;-61
2023/05/23 00:30:59;;;;;;;11.30;7.20;;;;;;;12.34;71.85;98288.95;105104;1256;97914;-59
2023/05/23 00:33:26;;;;;;;14.50;7.60;;;;;;;12.38;71.85;98290.50;105217;1267;97943;-61
2023/05/23 00:35:53;;;;;;;12.40;7.40;;;;;;;12.36;71.75;98290.29;105227;1255;97953;-60
2023/05/23 00:38:20;;;;;;;11.70;7.00;;;;;;;12.24;72.35;98293.21;105153;1266;98408;-60
2023/05/23 00:40:47;;;;;;;11.50;7.80;;;;;;;12.14;72.50;98293.86;105115;1273;97906;-61
2023/05/23 00:43:15;;;;;;;10.70;7.60;;;;;;;12.12;72.88;98291.42;105126;1258;98074;-60
2023/05/23 00:45:42;;;;;;;9.80;7.40;;;;;;;12.08;73.24;98294.26;105087;1261;97934;-60
2023/05/23 00:48:10;;;;;;;13.60;7.60;;;;;;;12.02;73.01;98292.19;105173;1258;97981;-59
2023/05/23 00:50:37;;;;;;;11.80;7.40;;;;;;;11.96;72.99;98285.23;105104;1257;97924;-60
2023/05/23 00:53:04;;;;;;;11.80;7.80;;;;;;;11.91;73.17;98284.31;105149;1257;98069;-59
2023/05/23 00:55:32;;;;;;;14.80;8.00;;;;;;;11.86;73.36;98286.73;105172;1258;99298;-59
2023/05/23 00:57:59;;;;;;;18.70;8.30;;;;;;;11.83;73.57;98281.81;105077;1254;98001;-59
2023/05/23 01:00:26;;;;;;;11.90;7.90;;;;;;;11.77;73.85;98277.73;104996;1267;97970;-59
2023/05/23 01:02:53;;;;;;;13.50;8.60;;;;;;;11.76;74.05;98282.23;105101;1257;97822;-61
2023/05/23 01:05:23;;;;;;;14.00;8.40;;;;;;;11.77;74.13;98281.58;105278;1254;97985;-61
2023/05/23 01:07:51;;;;;;;13.10;8.40;;;;;;;11.75;74.00;98284.39;105098;1258;97902;-60
2023/05/23 01:10:24;;;;;;;12.60;8.60;;;;;;;11.65;74.26;98286.38;105216;1254;97848;-60
2023/05/23 01:13:15;;;;;;;12.50;8.30;;;;;;;11.64;74.76;98286.48;104870;1254;110672;-61
2023/05/23 01:16:06;;;;;;;14.40;9.10;;;;;;;11.57;74.65;98288.11;104933;1270;98577;-58
2023/05/23 01:19:15;;;;;;;13.30;9.00;;;;;;;11.48;75.11;98284.36;105150;1254;108562;-59
2023/05/23 01:21:45;;;;;;;13.10;8.30;;;;;;;11.45;75.57;98282.08;105174;1254;98382;-59
2023/05/23 01:24:35;;;;;;;14.60;8.90;;;;;;;11.42;75.49;98280.30;104937;1261;98005;-59
2023/05/23 01:27:47;;;;;;;15.00;9.50;;;;;;;11.36;75.61;98278.48;104900;1262;111894;-59
2023/05/23 01:30:18;;;;;;;15.70;9.10;;;;;;;11.30;75.91;98277.20;104571;1264;99824;-59
2023/05/23 01:32:47;;;;;;;13.00;8.40;;;;;;;11.26;75.98;98276.23;104496;1266;108151;-59
2023/05/23 01:35:21;;;;;;;14.50;8.80;;;;;;;11.26;75.90;98274.66;104353;1277;97965;-59
2023/05/23 01:37:48;;;;;;;12.20;7.80;;;;;;;11.26;75.99;98278.48;104505;1266;98486;-59
2023/05/23 01:40:17;;;;;;;15.20;8.90;;;;;;;11.23;76.07;98276.73;104364;1264;98895;-60
2023/05/23 01:42:54;;;;;;;11.60;8.20;;;;;;;11.24;76.09;98271.31;104598;1264;98065;-60
2023/05/23 01:45:30;;;;;;;13.60;8.30;;;;;;;11.22;76.40;98272.79;104556;1266;108444;-60
2023/05/23 01:48:01;;;;;;;13.50;8.20;;;;;;;11.17;76.28;98270.95;104488;1261;97935;-59
2023/05/23 01:50:34;;;;;;;11.50;7.90;;;;;;;11.06;76.41;98270.55;104532;1260;98329;-59
2023/05/23 01:53:06;;;;;;;12.90;8.40;;;;;;;10.98;76.85;98271.48;104469;1270;112249;-59
2023/05/23 01:55:36;;;;;;;14.20;8.70;;;;;;;10.97;76.85;98270.51;104446;1263;98069;-58
2023/05/23 01:58:07;;;;;;;14.00;8.50;;;;;;;10.92;76.87;98268.16;104818;1274;108152;-60
2023/05/23 02:00:36;;;;;;;16.50;9.20;;;;;;;10.88;77.19;98266.15;104563;1271;98094;-60
2023/05/23 02:03:07;;;;;;;15.80;9.70;;;;;;;10.87;77.31;98272.27;104582;1266;99174;-59
2023/05/23 02:05:35;;;;;;;15.80;9.10;;;;;;;10.84;77.28;98266.28;104625;1267;110839;-59
2023/05/23 02:08:02;;;;;;;17.30;8.90;;;;;;;10.81;77.54;98269.42;105174;1258;97889;-59
2023/05/23 02:10:29;;;;;;;18.00;8.90;;;;;;;10.78;77.54;98263.96;104995;1254;97885;-59
2023/05/23 02:12:56;;;;;;;15.60;9.30;;;;;;;10.77;77.53;98264.65;105144;1258;99087;-59
2023/05/23 02:15:22;;;;;;;13.80;8.60;;;;;;;10.71;77.72;98264.19;105157;1267;98007;-59
2023/05/23 02:17:50;;;;;;;14.90;9.10;;;;;;;10.61;77.98;98264.25;105212;1260;97940;-59
2023/05/23 02:20:17;;;;;;;16.90;10.20;;;;;;;10.52;78.47;98267.06;105137;1257;97986;-62
2023/05/23 02:22:45;;;;;;;16.60;10.30;;;;;;;10.43;78.66;98264.30;105135;1257;99298;-60
2023/05/23 02:25:12;;;;;;;15.70;9.30;;;;;;;10.35;78.76;98264.09;105174;1267;98871;-60
2023/05/23 02:27:39;;;;;;;15.60;9.90;;;;;;;10.32;79.13;98266.15;105036;1256;97952;-60
2023/05/23 02:30:07;;;;;;;16.10;9.40;;;;;;;10.35;78.96;98262.08;105227;1266;98282;-62
2023/05/23 02:32:36;;;;;;;14.70;9.70;;;;;;;10.30;79.08;98264.42;105089;1258;108615;-61
2023/05/23 02:35:05;;;;;;;18.00;10.30;;;;;;;10.25;79.30;98268.44;105190;1267;98381;-60
2023/05/23 02:37:32;;;;;;;12.90;9.30;;;;;;;10.25;79.52;98267.86;105201;1271;98341;-60
2023/05/23 02:39:59;;;;;;;15.00;9.50;;;;;;;10.28;79.63;98269.27;105063;1268;97914;-59
2023/05/23 02:42:26;;;;;;;13.80;9.20;;;;;;;10.27;79.54;98262.13;104979;1257;97947;-59
2023/05/23 02:44:53;;;;;;;15.50;9.10;;;;;;;10.30;79.84;98261.13;105064;1276;97976;-61
2023/05/23 02:47:20;;;;;;;16.20;9.20;;;;;;;10.34;79.63;98258.91;105116;1258;98804;-60
2023/05/23 02:49:47;;;;;;;13.00;8.80;;;;;;;10.33;79.53;98257.82;105116;1261;97933;-60
2023/05/23 02:52:14;;;;;;;15.50;8.70;;;;;;;10.35;79.78;98258.73;105030;1257;98301;-60
2023/05/23 02:54:41;;;;;;;14.40;9.20;;;;;;;10.38;79.76;98259.23;105069;1254;97972;-60
2023/05/23 02:57:09;;;;;;;16.30;9.10;;;;;;;10.28;79.35;98258.23;104937;1255;99210;-60
2023/05/23 02:59:36;;;;;;;13.40;9.10;;;;;;;10.13;79.92;98260.16;105171;1267;97902;-65
2023/05/23 03:02:03;;;;;;;14.80;9.80;;;;;;;10.08;80.53;98253.09;105103;1260;97989;-64
2023/05/23 03:04:30;;;;;;;13.90;9.00;;;;;;;10.04;80.62;98251.92;105041;1255;98956;-59
2023/05/23 03:06:58;;;;;;;14.70;9.80;;;;;;;10.05;81.04;98251.00;105120;1258;97975;-59
2023/05/23 03:09:25;;;;;;;16.90;9.60;;;;;;;10.09;80.87;98248.24;105197;1276;97946;-60
2023/05/23 03:11:52;;;;;;;13.80;9.30;;;;;;;10.15;81.17;98245.76;105215;1266;97856;-60
2023/05/23 03:14:32;;;;;;;15.60;10.00;;;;;;;10.23;80.98;98244.23;105196;1267;112283;-60
2023/05/23 03:16:59;;;;;;;13.80;9.70;;;;;;;10.28;80.66;98241.86;105173;1276;97982;-61
2023/05/23 03:19:27;;;;;;;15.00;9.70;;;;;;;10.32;80.90;98238.91;105181;1267;97950;-60
2023/05/23 03:21:54;;;;;;;17.40;9.90;;;;;;;10.37;80.96;98235.27;105181;1256;99112;-60
2023/05/23 03:24:21;;;;;;;18.60;9.80;;;;;;;10.44;80.58;98236.77;105136;1267;97888;-61
2023/05/23 03:26:48;;;;;;;16.30;9.90;;;;;;;10.47;80.46;98239.69;105092;1270;98666;-60
2023/05/23 03:29:15;;;;;;;16.40;9.30;;;;;;;10.42;80.78;98242.02;105167;1254;98335;-60
2023/05/23 03:31:42;;;;;;;15.90;9.90;;;;;;;10.35;81.10;98242.96;105036;1260;99189;-60
2023/05/23 03:34:09;;;;;;;13.60;9.90;;;;;;;10.30;81.43;98237.90;105138;1260;99084;-60
2023/05/23 03:36:38;;;;;;;14.90;9.70;;;;;;;10.25;81.94;98235.48;105190;1265;97956;-60
2023/05/23 03:39:05;;;;;;;16.60;9.50;;;;;;;10.20;82.36;98235.84;105145;1253;97905;-60
2023/05/23 03:41:32;;;;;;;17.30;9.60;;;;;;;10.19;82.82;98235.54;105154;1256;98664;-60
2023/05/23 03:43:59;;;;;;;15.80;9.90;;;;;;;10.20;83.11;98236.45;105105;1273;98023;-61
2023/05/23 03:46:26;;;;;;;16.00;10.40;;;;;;;10.28;83.04;98236.10;105176;1257;99298;-60
2023/05/23 03:48:54;;;;;;;15.90;10.70;;;;;;;10.40;82.90;98234.42;105123;1264;97898;-60
2023/05/23 03:51:22;;;;;;;15.40;10.80;;;;;;;10.55;82.81;98238.36;105103;1257;97888;-60
2023/05/23 03:53:50;;;;;;;16.30;10.80;;;;;;;10.74;82.77;98231.70;105159;1276;99070;-60
2023/05/23 03:56:20;;;;;;;14.80;10.40;;;;;;;10.95;82.07;98234.69;104971;1266;97976;-61
2023/05/23 03:58:52;;;;;;;16.30;11.00;;;;;;;11.15;81.98;98237.33;105045;1276;97947;-60
2023/05/23 04:01:23;;;;;;;17.90;10.70;;;;;;;11.33;81.57;98239.01;104931;1258;98945;-59
2023/05/23 04:03:51;;;;;;;20.10;11.70;;;;;;;11.55;81.28;98239.46;104818;1263;111610;-60
2023/05/23 04:06:19;;;;;;;18.60;11.30;;;;;;;11.76;81.07;98231.02;105200;1259;99393;-59
2023/05/23 04:08:47;;;;;;;15.50;10.60;;;;;;;11.81;80.51;98233.50;105171;1256;108551;-59
2023/05/23 04:11:14;;;;;;;20.60;12.40;;;;;;;11.89;80.74;98234.65;105035;1258;98130;-59
2023/05/23 04:13:42;;;;;;;18.60;11.60;;;;;;;11.90;80.39;98224.76;105035;1254;97967;-60
2023/05/23 04:16:09;;;;;;;20.20;11.70;;;;;;;11.95;80.07;98227.27;104944;1254;112090;-60
2023/05/23 04:18:37;;;;;;;17.40;10.30;;;;;;;11.97;80.20;98225.39;104928;1257;97912;-60
2023/05/23 04:21:05;;;;;;;23.30;10.10;;;;;;;12.00;80.18;98226.47;105050;1258;108643;-61
2023/05/23 04:23:32;;;;;;;19.50;10.50;;;;;;;12.07;79.92;98228.43;105029;1276;97918;-62
2023/05/23 04:25:59;;;;;;;18.00;9.70;;;;;;;12.11;79.56;98222.58;105106;1257;98033;-63
2023/05/23 04:28:27;;;;;;;17.90;9.80;;;;;;;12.13;79.32;98217.84;105162;1257;99180;-61
2023/05/23 04:30:55;;;;;;;16.70;11.00;;;;;;;12.16;79.42;98219.54;105137;1267;98087;-61
2023/05/23 04:33:22;;;;;;;19.00;11.20;;;;;;;12.27;79.59;98218.83;105154;1257;99202;-61
2023/05/23 04:35:50;;;;;;;15.10;9.70;;;;;;;12.46;79.23;98219.20;105118;1268;97998;-62
2023/05/23 04:38:17;;;;;;;14.80;9.60;;;;;;;12.57;78.46;98217.92;105190;1254;97896;-62
2023/05/23 04:40:44;;;;;;;18.00;10.30;;;;;;;12.58;78.09;98219.87;105110;1257;98038;-59
2023/05/23 04:43:13;;;;;;;16.60;10.80;;;;;;;12.61;78.21;98219.65;105117;1258;97966;-60
2023/05/23 04:45:40;;;;;;;18.20;11.20;;;;;;;12.69;78.83;98214.58;105195;1254;108621;-61
2023/05/23 04:48:08;;;;;;;16.80;11.20;;;;;;;12.77;78.78;98218.40;105157;1267;99081;-60
2023/05/23 04:50:36;;;;;;;16.40;10.70;;;;;;;12.88;78.45;98215.95;105155;1257;97971;-60
2023/05/23 04:53:03;;;;;;;21.50;11.00;;;;;;;13.01;78.26;98215.89;105158;1258;112397;-61
2023/05/23 04:55:31;;;;;;;17.20;10.90;;;;;;;13.21;77.98;98220.02;105129;1256;98008;-60
2023/05/23 04:57:59;;;;;;;16.60;10.70;;;;;;;13.29;77.56;98220.29;105146;1257;99189;-60
2023/05/23 05:00:27;;;;;;;19.10;10.70;;;;;;;13.44;77.10;98223.81;104979;1269;97909;-61
2023/05/23 05:02:53;;;;;;;15.70;10.90;;;;;;;13.59;76.70;98218.34;105179;1257;98493;-60
2023/05/23 05:05:21;;;;;;;17.60;11.00;;;;;;;13.76;76.51;98222.65;105195;1254;97925;-61
2023/05/23 05:07:48;;;;;;;16.50;11.10;;;;;;;13.88;76.08;98221.84;105154;1257;98005;-61
2023/05/23 05:10:16;;;;;;;21.60;11.30;;;;;;;14.04;76.16;98223.48;105107;1270;98801;-61
2023/05/23 05:12:45;;;;;;;15.20;10.60;;;;;;;14.21;75.52;98218.55;105161;1254;97963;-61
2023/05/23 05:15:12;;;;;;;14.60;10.20;;;;;;;14.33;75.31;98216.67;105212;1254;98073;-61
2023/05/23 05:17:40;;;;;;;17.40;11.40;;;;;;;14.36;74.57;98214.56;105126;1267;97946;-61
2023/05/23 05:20:09;;;;;;;18.10;10.90;;;;;;;14.43;74.97;98218.36;105160;1257;97906;-61
2023/05/23 05:22:39;;;;;;;18.80;11.50;;;;;;;14.52;74.51;98216.55;105022;1263;107263;-61
2023/05/23 05:25:07;;;;;;;19.60;12.10;;;;;;;14.53;74.07;98211.34;105012;1261;99275;-61
2023/05/23 05:27:36;;;;;;;15.80;11.00;;;;;;;14.60;74.52;98209.38;105050;1257;99081;-61
2023/05/23 05:30:08;;;;;;;16.90;11.40;;;;;;;14.81;74.72;98209.95;105168;1256;111816;-61
2023/05/23 05:32:35;;;;;;;16.20;10.60;;;;;;;15.04;74.04;98203.38;105119;1254;99179;-61
2023/05/23 05:35:03;;;;;;;15.90;10.90;;;;;;;15.18;72.45;98207.38;105020;1260;97891;-61
2023/05/23 05:37:30;;;;;;;20.50;10.50;;;;;;;15.23;72.62;98206.30;105055;1276;99056;-61
2023/05/23 05:39:57;;;;;;;18.30;11.70;;;;;;;15.27;72.19;98206.89;105054;1267;99276;-61
2023/05/23 05:42:25;;;;;;;25.50;12.00;;;;;;;15.45;72.96;98208.33;104983;1257;112240;-61
2023/05/23 05:44:52;;;;;;;15.90;11.00;;;;;;;15.71;72.26;98206.73;105144;1254;97936;-62
2023/05/23 05:47:19;;;;;;;14.70;10.80;;;;;;;15.89;71.61;98207.41;105153;1270;98664;-68
2023/05/23 05:49:46;;;;;;;16.80;12.00;;;;;;;16.00;70.89;98204.63;105091;1260;97896;-61
2023/05/23 05:52:13;;;;;;;16.30;11.10;;;;;;;16.13;71.02;98200.07;105167;1257;99205;-61
2023/05/23 05:54:40;;;;;;;18.80;11.60;;;;;;;16.25;70.63;98196.23;105126;1260;99211;-61
2023/05/23 05:57:07;;;;;;;17.10;11.30;;;;;;;16.37;70.59;98197.55;105105;1258;99324;-61
2023/05/23 05:59:34;;;;;;;18.40;12.10;;;;;;;16.59;70.60;98198.20;105115;1254;99191;-61
2023/05/23 06:02:02;;;;;;;19.20;11.40;;;;;;;16.81;69.77;98197.50;105039;1254;98156;-61
2023/05/23 06:04:30;;;;;;;14.30;10.80;;;;;;;16.99;69.24;98200.76;105158;1260;98693;-61
2023/05/23 06:06:57;;;;;;;15.60;11.30;;;;;;;17.15;68.85;98199.30;104981;1261;98775;-60
2023/05/23 06:09:23;;;;;;;17.90;11.30;;;;;;;17.38;68.34;98200.16;105076;1257;97900;-62
2023/05/23 06:11:51;;;;;;;17.40;11.40;;;;;;;17.67;68.18;98192.92;105060;1257;97973;-60
2023/05/23 06:14:18;;;;;;;21.20;10.80;;;;;;;17.92;67.57;98190.34;105137;1255;97935;-61
2023/05/23 06:16:46;;;;;;;18.00;10.90;;;;;;;18.10;67.63;98183.61;105112;1256;97986;-59
2023/05/23 06:19:14;;;;;;;17.80;11.20;;;;;;;18.15;65.40;98181.02;105136;1269;97887;-60
2023/05/23 06:21:41;;;;;;;16.90;10.60;;;;;;;18.17;65.12;98183.72;105099;1255;97915;-60
2023/05/23 06:24:08;;;;;;;15.90;10.90;;;;;;;18.16;64.85;98181.02;105113;1269;99302;-60
2023/05/23 06:26:36;;;;;;;21.30;11.10;;;;;;;18.28;64.85;98181.16;105052;1258;98811;-60
2023/05/23 06:29:03;;;;;;;15.70;11.40;;;;;;;18.54;65.46;98174.23;105063;1260;97968;-60
2023/05/23 06:31:30;;;;;;;15.20;10.40;;;;;;;18.72;65.09;98172.69;105099;1259;98008;-61
2023/05/23 06:33:58;;;;;;;16.80;10.90;;;;;;;18.92;63.42;98167.89;105049;1254;98029;-60
2023/05/23 06:36:25;;;;;;;14.60;10.60;;;;;;;19.05;63.33;98168.17;104847;1258;249740;-60
2023/05/23 06:38:52;;;;;;;17.30;10.70;;;;;;;19.27;62.77;98167.25;105068;1256;97965;-60
2023/05/23 06:41:20;;;;;;;16.20;10.60;;;;;;;19.46;62.04;98166.61;105049;1254;97926;-61
2023/05/23 06:43:47;;;;;;;16.30;10.20;;;;;;;19.51;59.87;98163.30;105230;1257;97989;-61
2023/05/23 06:46:14;;;;;;;14.20;10.40;;;;;;;19.41;60.85;98163.15;105013;1269;97960;-61
2023/05/23 06:48:42;;;;;;;14.80;10.70;;;;;;;19.45;59.98;98161.91;104985;1267;99195;-60
2023/05/23 06:51:09;;;;;;;14.60;10.10;;;;;;;19.38;59.88;98158.61;105152;1257;99285;-60
2023/05/23 06:53:37;;;;;;;15.00;9.80;;;;;;;19.55;60.68;98159.13;105136;1257;97900;-60
2023/05/23 06:56:04;;;;;;;29.20;12.80;;;;;;;19.88;60.81;98158.75;105102;1257;98797;-60
2023/05/23 06:58:31;;;;;;;16.70;10.40;;;;;;;20.14;59.65;98155.65;105072;1254;97972;-60
2023/05/23 07:00:59;;;;;;;16.10;9.80;;;;;;;20.30;58.64;98156.81;105108;1257;97989;-60
2023/05/23 07:03:26;;;;;;;14.90;9.60;;;;;;;20.49;58.66;98154.24;104888;1258;97876;-60
2023/05/23 07:05:53;;;;;;;14.40;10.10;;;;;;;20.62;57.01;98151.41;105056;1258;97969;-61
2023/05/23 07:08:21;;;;;;;14.60;10.60;;;;;;;20.81;58.14;98155.50;104960;1259;97889;-60
2023/05/23 07:10:48;;;;;;;17.50;9.70;;;;;;;21.12;58.04;98153.34;105080;1257;97959;-64
2023/05/23 07:13:15;;;;;;;13.30;10.00;;;;;;;21.37;57.47;98153.88;105077;1257;98554;-61
2023/05/23 07:15:43;;;;;;;16.70;9.70;;;;;;;21.56;56.44;98146.45;105143;1254;99174;-61
2023/05/23 07:18:10;;;;;;;19.90;10.60;;;;;;;21.83;55.81;98143.70;105131;1256;99028;-60
2023/05/23 07:20:38;;;;;;;16.50;10.10;;;;;;;21.94;54.91;98141.59;105134;1254;98804;-61
2023/05/23 07:23:05;;;;;;;13.60;10.10;;;;;;;22.13;55.09;98143.60;105149;1257;99180;-62
2023/05/23 07:25:32;;;;;;;16.50;10.40;;;;;;;22.06;53.15;98144.73;105085;1254;97832;-62
2023/05/23 07:28:00;;;;;;;17.10;9.80;;;;;;;21.96;54.37;98140.63;105071;1255;97902;-64
2023/05/23 07:30:27;;;;;;;18.90;9.80;;;;;;;22.19;53.69;98136.55;105126;1257;97946;-61
2023/05/23 07:32:56;;;;;;;13.00;9.20;;;;;;;22.30;53.93;98134.67;105114;1256;99206;-62
2023/05/23 07:35:25;;;;;;;13.40;8.70;;;;;;;22.42;51.37;98130.38;105104;1257;97914;-62
2023/05/23 07:37:52;;;;;;;12.20;8.70;;;;;;;22.36;51.71;98130.58;105156;1257;97992;-65
2023/05/23 07:40:21;;;;;;;12.70;8.60;;;;;;;22.58;51.85;98126.23;105098;1254;98228;-65
2023/05/23 07:42:54;;;;;;;14.70;8.40;;;;;;;22.72;50.40;98125.52;105014;1260;111037;-62
2023/05/23 07:45:31;;;;;;;12.90;7.60;;;;;;;22.70;49.86;98124.56;105002;1254;98917;-64
2023/05/23 07:48:03;;;;;;;12.00;8.20;;;;;;;22.79;50.44;98125.86;105100;1269;108167;-62
2023/05/23 07:50:30;;;;;;;12.40;7.70;;;;;;;23.02;49.87;98130.65;105115;1258;97921;-63
2023/05/23 07:52:57;;;;;;;15.50;8.80;;;;;;;23.00;49.53;98130.80;105119;1260;97909;-62
2023/05/23 07:55:25;;;;;;;11.80;8.90;;;;;;;23.13;49.55;98129.20;105133;1257;97905;-61
2023/05/23 07:57:55;;;;;;;14.50;8.90;;;;;;;23.25;48.93;98126.85;105046;1268;98493;-61
2023/05/23 08:00:22;;;;;;;11.60;7.90;;;;;;;23.51;49.77;98125.59;104859;1263;108906;-64
2023/05/23 08:02:49;;;;;;;11.40;7.30;;;;;;;23.87;48.25;98126.09;105165;1256;99215;-60
2023/05/23 08:05:18;;;;;;;11.70;7.70;;;;;;;23.85;47.18;98125.80;105148;1256;98744;-61
2023/05/23 08:07:45;;;;;;;13.30;8.00;;;;;;;23.78;47.65;98129.86;104977;1255;111612;-63
2023/05/23 08:10:13;;;;;;;9.40;7.60;;;;;;;23.87;47.46;98121.45;105091;1261;99211;-65
2023/05/23 08:12:40;;;;;;;12.70;6.50;;;;;;;23.97;47.32;98122.05;105079;1260;98950;-64
2023/05/23 08:15:08;;;;;;;9.70;6.00;;;;;;;24.32;47.07;98124.19;105157;1258;97970;-65
2023/05/23 08:17:35;;;;;;;8.90;6.40;;;;;;;24.76;46.52;98123.96;105168;1256;98393;-64
2023/05/23 08:20:04;;;;;;;7.90;6.20;;;;;;;25.15;45.71;98120.58;105047;1259;97905;-61
2023/05/23 08:22:31;;;;;;;10.70;7.30;;;;;;;25.55;44.60;98121.81;105168;1269;99151;-62
2023/05/23 08:24:58;;;;;;;10.70;6.70;;;;;;;25.48;43.81;98117.60;105035;1256;97912;-64
2023/05/23 08:27:25;;;;;;;10.60;6.50;;;;;;;25.50;44.64;98118.94;105012;1254;99164;-61
2023/05/23 08:29:54;;;;;;;11.30;6.10;;;;;;;25.85;44.64;98116.03;105132;1257;97921;-64
2023/05/23 08:32:22;;;;;;;10.60;6.70;;;;;;;26.26;43.65;98116.02;105104;1257;111782;-62
2023/05/23 08:34:49;;;;;;;12.30;7.00;;;;;;;26.30;44.00;98113.62;105154;1254;99199;-60
2023/05/23 08:37:16;;;;;;;12.60;7.40;;;;;;;26.52;43.97;98111.05;105108;1261;97992;-61
2023/05/23 08:39:43;;;;;;;10.20;7.00;;;;;;;26.84;44.34;98109.52;105006;1260;97937;-60
2023/05/23 08:42:12;;;;;;;11.50;7.20;;;;;;;27.14;42.52;98108.01;105208;1260;97829;-61
2023/05/23 08:44:39;;;;;;;11.20;6.90;;;;;;;27.38;43.20;98107.96;105092;1257;112272;-61
2023/05/23 08:47:07;;;;;;;11.20;6.60;;;;;;;27.60;42.67;98109.52;105102;1260;100214;-61
2023/05/23 08:49:36;;;;;;;11.80;5.80;;;;;;;27.65;41.38;98108.36;105132;1257;108600;-61
2023/05/23 08:52:04;;;;;;;11.20;6.20;;;;;;;27.61;40.38;98109.04;105166;1257;97905;-61
2023/05/23 08:54:32;;;;;;;9.20;6.80;;;;;;;27.69;40.71;98107.07;105004;1262;97915;-62
2023/05/23 08:57:01;;;;;;;8.30;6.30;;;;;;;27.87;41.31;98109.16;105151;1260;112202;-63
2023/05/23 08:59:29;;;;;;;9.30;5.60;;;;;;;28.13;39.83;98111.23;105116;1254;98432;-64
2023/05/23 09:01:57;;;;;;;8.80;5.30;;;;;;;28.24;38.83;98103.41;104900;1261;107796;-61
2023/05/23 09:04:24;;;;;;;10.50;5.20;;;;;;;28.46;38.57;98108.67;105166;1255;98005;-61
2023/05/23 09:06:56;;;;;;;9.20;5.40;;;;;;;28.83;36.98;98109.45;105057;1259;99164;-60
2023/05/23 09:09:24;;;;;;;6.20;4.50;;;;;;;28.83;36.48;98108.55;105209;1257;112515;-60
2023/05/23 09:11:53;;;;;;;6.60;4.60;;;;;;;28.78;34.96;98105.10;104978;1261;99088;-60
2023/05/23 09:14:21;;;;;;;5.60;4.50;;;;;;;28.98;34.69;98109.23;105122;1260;108595;-61
2023/05/23 09:16:48;;;;;;;5.10;4.10;;;;;;;29.13;32.61;98108.48;105163;1257;99193;-60
2023/05/23 09:19:17;;;;;;;8.50;4.00;;;;;;;28.66;31.99;98105.12;105155;1257;97896;-60
2023/05/23 09:21:45;;;;;;;6.50;4.40;;;;;;;28.73;33.47;98106.69;104966;1261;111278;-61
2023/05/23 09:24:12;;;;;;;5.00;4.10;;;;;;;29.05;32.50;98107.23;105053;1254;97960;-60
2023/05/23 09:26:39;;;;;;;6.60;4.10;;;;;;;29.20;32.40;98101.33;105081;1254;98695;-61
2023/05/23 09:29:06;;;;;;;7.50;4.70;;;;;;;28.97;32.22;98104.80;105172;1260;98002;-60
2023/05/23 09:31:34;;;;;;;6.70;5.10;;;;;;;28.74;33.73;98099.41;105022;1259;97963;-60
2023/05/23 09:34:02;;;;;;;8.90;4.90;;;;;;;28.67;34.53;98098.48;105228;1255;112646;-60
2023/05/23 09:36:33;;;;;;;8.90;4.70;;;;;;;28.75;34.01;98096.08;105132;1258;99295;-60
2023/05/23 09:39:11;;;;;;;8.50;5.00;;;;;;;29.13;35.15;98095.02;105158;1258;108201;-61
2023/05/23 09:41:39;;;;;;;9.20;4.70;;;;;;;29.65;34.31;98091.25;105447;1257;97851;-61
2023/05/23 09:44:09;;;;;;;6.40;4.80;;;;;;;30.04;32.83;98091.98;105182;1255;97988;-62
2023/05/23 09:46:37;;;;;;;6.10;4.30;;;;;;;30.31;32.73;98085.91;105087;1255;111800;-61
2023/05/23 09:49:17;;;;;;;7.10;4.30;;;;;;;30.54;32.07;98085.91;105075;1263;97999;-63
2023/05/23 09:51:56;;;;;;;;;;;;;;;30.45;30.99;98084.23;105005;1253;108608;-65
2023/05/23 09:54:23;;;;;;;8.40;4.70;;;;;;;30.24;31.75;98081.83;105121;1257;98037;-63
2023/05/23 09:56:52;;;;;;;6.20;4.30;;;;;;;30.52;31.44;98080.18;105163;1257;99084;-65
2023/05/23 09:59:27;;;;;;;6.50;4.40;;;;;;;30.95;31.91;98074.48;104862;1262;111204;-64
2023/05/23 10:02:01;;;;;;;8.10;5.10;;;;;;;31.12;30.97;98067.41;105116;1259;98190;-60
2023/05/23 10:04:31;;;;;;;9.40;5.10;;;;;;;30.75;31.83;98069.80;105012;1271;107658;-62
2023/05/23 10:07:06;;;;;;;7.40;4.40;;;;;;;30.87;31.74;98065.70;104986;1261;98069;-63
2023/05/23 10:09:38;;;;;;;7.40;4.40;;;;;;;30.81;31.43;98064.51;104923;1260;99328;-63
2023/05/23 10:12:43;;;;;;;6.70;4.40;;;;;;;30.92;31.70;98057.91;105159;1256;111930;-63
2023/05/23 10:15:14;;;;;;;7.80;4.60;;;;;;;31.12;31.33;98058.29;105155;1260;99080;-64
2023/05/23 10:17:59;;;;;;;6.90;4.60;;;;;;;31.33;31.08;98059.16;104884;1255;107718;-64
2023/05/23 10:20:32;;;;;;;6.50;4.20;;;;;;;31.30;30.67;98061.02;105100;1264;97893;-64
2023/05/23 10:23:00;;;;;;;4.70;4.20;;;;;;;31.16;32.20;98058.92;104945;1262;99298;-64
2023/05/23 10:25:28;;;;;;;6.40;4.20;;;;;;;31.52;31.73;98053.20;104955;1263;111260;-65
2023/05/23 10:28:00;;;;;;;5.70;4.50;;;;;;;31.83;30.80;98052.36;104951;1272;98388;-65
2023/05/23 10:30:30;;;;;;;7.30;4.10;;;;;;;31.57;30.63;98051.98;105090;1258;108636;-64
2023/05/23 10:32:59;;;;;;;8.80;4.10;;;;;;;31.83;31.42;98050.83;105071;1260;98999;-65
2023/05/23 10:35:55;;;;;;;6.70;4.20;;;;;;;32.20;30.42;98053.70;105060;1261;97959;-63
2023/05/23 10:38:29;;;;;;;5.00;4.20;;;;;;;32.19;30.81;98053.39;104875;1264;114143;-62
2023/05/23 10:41:05;;;;;;;5.20;4.00;;;;;;;32.26;32.50;98050.81;105141;1260;99076;-65
2023/05/23 10:43:44;;;;;;;7.80;4.20;;;;;;;31.89;31.52;98052.83;105044;1260;108637;-65
2023/05/23 10:46:13;;;;;;;5.30;4.10;;;;;;;31.35;31.41;98047.63;104911;1254;98946;-65
2023/05/23 10:48:42;;;;;;;5.60;4.00;;;;;;;31.26;32.90;98050.71;105121;1257;99231;-65
2023/05/23 10:51:13;;;;;;;6.50;4.00;;;;;;;31.65;32.82;98047.20;105154;1259;112224;-65
2023/05/23 10:53:42;;;;;;;5.40;4.00;;;;;;;32.05;31.41;98051.30;104853;1260;99125;-66
2023/05/23 10:56:19;;;;;;;6.50;4.30;;;;;;;32.47;31.11;98047.86;105142;1259;109023;-64
2023/05/23 10:58:52;;;;;;;4.40;3.80;;;;;;;32.93;29.81;98048.32;104928;1269;98069;-61
2023/05/23 11:01:20;;;;;;;6.20;4.00;;;;;;;33.35;29.85;98040.20;105094;1260;97907;-61
2023/05/23 11:03:50;;;;;;;7.20;3.60;;;;;;;33.70;29.37;98037.00;105203;1254;112243;-62
2023/05/23 11:06:31;;;;;;;5.90;4.10;;;;;;;33.91;28.48;98030.63;105131;1259;99218;-62
2023/05/23 11:09:17;;;;;;;4.20;3.60;;;;;;;34.17;28.76;98030.14;105070;1260;108589;-61
2023/05/23 11:12:01;;;;;;;4.80;3.80;;;;;;;34.21;29.07;98030.46;105056;1259;98034;-60
2023/05/23 11:14:33;;;;;;;5.90;3.90;;;;;;;34.01;30.16;98026.82;104756;1263;98070;-64
2023/05/23 11:17:18;;;;;;;5.80;4.40;;;;;;;33.62;30.89;98030.39;105031;1263;112281;-63
2023/05/23 11:20:05;;;;;;;7.10;4.00;;;;;;;33.45;30.76;98028.02;104974;1254;98959;-61
2023/05/23 11:22:34;;;;;;;4.70;4.10;;;;;;;32.96;31.17;98024.73;104946;1256;108643;-60
2023/05/23 11:25:07;;;;;;;11.80;5.50;;;;;;;32.81;32.40;98018.04;105005;1269;97988;-60